sensor_id;sensor_type;location;lat;lon;timestamp;P1;durP1;ratioP1;P2;durP2;ratioP2
31298;SDS011;17927;52.350;13.402;2023-06-10T00:00:34;9.75;;;3.90;;
31298;SDS011;17927;52.350;13.402;2023-06-10T00:02:59;11.07;;;4.95;;
31298;SDS011;17927;52.350;13.402;2023-06-10T00:05:24;7.60;;;4.25;;
31298;SDS011;17927;52.350;13.402;2023-06-10T00:07:49;7.25;;;3.60;;
31298;SDS011;17927;52.350;13.402;2023-06-10T00:10:15;8.65;;;4.35;;
31298;SDS011;17927;52.350;13.402;2023-06-10T00:12:40;5.65;;;3.60;;
31298;SDS011;17927;52.350;13.402;2023-06-10T00:15:07;4.15;;;3.70;;
31298;SDS011;17927;52.350;13.402;2023-06-10T00:17:33;6.90;;;3.92;;
31298;SDS011;17927;52.350;13.402;2023-06-10T00:19:58;6.18;;;3.75;;
31298;SDS011;17927;52.350;13.402;2023-06-10T00:22:24;10.05;;;4.03;;
31298;SDS011;17927;52.350;13.402;2023-06-10T00:24:54;8.67;;;4.37;;
31298;SDS011;17927;52.350;13.402;2023-06-10T00:27:19;12.23;;;4.22;;
31298;SDS011;17927;52.350;13.402;2023-06-10T00:29:44;6.00;;;4.25;;
31298;SDS011;17927;52.350;13.402;2023-06-10T00:32:10;7.75;;;3.33;;
31298;SDS011;17927;52.350;13.402;2023-06-10T00:34:35;6.20;;;3.67;;
31298;SDS011;17927;52.350;13.402;2023-06-10T00:37:01;6.82;;;3.92;;
31298;SDS011;17927;52.350;13.402;2023-06-10T00:39:26;6.07;;;3.97;;
31298;SDS011;17927;52.350;13.402;2023-06-10T00:41:51;6.75;;;3.72;;
31298;SDS011;17927;52.350;13.402;2023-06-10T00:44:16;7.43;;;4.15;;
31298;SDS011;17927;52.350;13.402;2023-06-10T00:46:42;8.45;;;3.88;;
31298;SDS011;17927;52.350;13.402;2023-06-10T00:49:07;10.90;;;4.32;;
31298;SDS011;17927;52.350;13.402;2023-06-10T00:51:33;5.03;;;3.53;;
31298;SDS011;17927;52.350;13.402;2023-06-10T00:53:59;7.75;;;4.07;;
31298;SDS011;17927;52.350;13.402;2023-06-10T00:56:25;6.90;;;3.45;;
31298;SDS011;17927;52.350;13.402;2023-06-10T00:58:50;7.47;;;3.85;;
31298;SDS011;17927;52.350;13.402;2023-06-10T01:01:16;9.73;;;4.00;;
31298;SDS011;17927;52.350;13.402;2023-06-10T01:03:41;6.15;;;3.67;;
31298;SDS011;17927;52.350;13.402;2023-06-10T01:06:14;7.97;;;4.30;;
31298;SDS011;17927;52.350;13.402;2023-06-10T01:08:56;6.47;;;3.67;;
31298;SDS011;17927;52.350;13.402;2023-06-10T01:11:34;6.88;;;4.10;;
31298;SDS011;17927;52.350;13.402;2023-06-10T01:14:05;10.18;;;3.65;;
31298;SDS011;17927;52.350;13.402;2023-06-10T01:16:32;6.22;;;3.47;;
31298;SDS011;17927;52.350;13.402;2023-06-10T01:19:00;5.97;;;3.60;;
31298;SDS011;17927;52.350;13.402;2023-06-10T01:21:26;15.68;;;4.00;;
31298;SDS011;17927;52.350;13.402;2023-06-10T01:23:52;4.88;;;3.90;;
31298;SDS011;17927;52.350;13.402;2023-06-10T01:26:20;6.18;;;4.28;;
31298;SDS011;17927;52.350;13.402;2023-06-10T01:28:58;7.83;;;4.40;;
31298;SDS011;17927;52.350;13.402;2023-06-10T01:31:42;6.95;;;3.53;;
31298;SDS011;17927;52.350;13.402;2023-06-10T01:34:16;6.70;;;4.22;;
31298;SDS011;17927;52.350;13.402;2023-06-10T01:36:44;5.97;;;3.90;;
31298;SDS011;17927;52.350;13.402;2023-06-10T01:39:12;9.48;;;4.05;;
31298;SDS011;17927;52.350;13.402;2023-06-10T01:41:39;7.07;;;3.75;;
31298;SDS011;17927;52.350;13.402;2023-06-10T01:44:05;5.82;;;4.18;;
31298;SDS011;17927;52.350;13.402;2023-06-10T01:46:30;5.32;;;4.20;;
31298;SDS011;17927;52.350;13.402;2023-06-10T01:48:56;8.15;;;4.20;;
31298;SDS011;17927;52.350;13.402;2023-06-10T01:51:21;6.93;;;4.32;;
31298;SDS011;17927;52.350;13.402;2023-06-10T01:53:46;9.82;;;4.53;;
31298;SDS011;17927;52.350;13.402;2023-06-10T01:56:11;7.00;;;4.53;;
31298;SDS011;17927;52.350;13.402;2023-06-10T01:58:42;7.05;;;3.78;;
31298;SDS011;17927;52.350;13.402;2023-06-10T02:01:08;9.68;;;4.53;;
31298;SDS011;17927;52.350;13.402;2023-06-10T02:03:34;6.28;;;4.00;;
31298;SDS011;17927;52.350;13.402;2023-06-10T02:05:59;5.78;;;3.80;;
31298;SDS011;17927;52.350;13.402;2023-06-10T02:08:25;5.80;;;3.78;;
31298;SDS011;17927;52.350;13.402;2023-06-10T02:10:50;7.00;;;4.10;;
31298;SDS011;17927;52.350;13.402;2023-06-10T02:13:15;9.05;;;4.03;;
31298;SDS011;17927;52.350;13.402;2023-06-10T02:15:40;5.28;;;3.72;;
31298;SDS011;17927;52.350;13.402;2023-06-10T02:18:06;9.93;;;4.30;;
31298;SDS011;17927;52.350;13.402;2023-06-10T02:20:31;8.25;;;5.00;;
31298;SDS011;17927;52.350;13.402;2023-06-10T02:22:56;6.15;;;3.85;;
31298;SDS011;17927;52.350;13.402;2023-06-10T02:25:22;8.27;;;4.20;;
31298;SDS011;17927;52.350;13.402;2023-06-10T02:27:47;9.70;;;4.35;;
31298;SDS011;17927;52.350;13.402;2023-06-10T02:30:13;8.00;;;4.15;;
31298;SDS011;17927;52.350;13.402;2023-06-10T02:32:38;10.00;;;4.25;;
31298;SDS011;17927;52.350;13.402;2023-06-10T02:35:04;7.63;;;4.43;;
31298;SDS011;17927;52.350;13.402;2023-06-10T02:37:29;8.02;;;4.40;;
31298;SDS011;17927;52.350;13.402;2023-06-10T02:39:54;10.00;;;4.45;;
31298;SDS011;17927;52.350;13.402;2023-06-10T02:42:19;6.93;;;4.43;;
31298;SDS011;17927;52.350;13.402;2023-06-10T02:44:45;12.93;;;4.50;;
31298;SDS011;17927;52.350;13.402;2023-06-10T02:47:10;9.20;;;4.10;;
31298;SDS011;17927;52.350;13.402;2023-06-10T02:49:35;10.40;;;4.88;;
31298;SDS011;17927;52.350;13.402;2023-06-10T02:52:01;7.55;;;4.97;;
31298;SDS011;17927;52.350;13.402;2023-06-10T02:54:26;6.07;;;4.13;;
31298;SDS011;17927;52.350;13.402;2023-06-10T02:56:51;9.02;;;5.20;;
31298;SDS011;17927;52.350;13.402;2023-06-10T02:59:17;7.07;;;5.00;;
31298;SDS011;17927;52.350;13.402;2023-06-10T03:01:42;12.13;;;5.05;;
31298;SDS011;17927;52.350;13.402;2023-06-10T03:04:08;11.13;;;6.40;;
31298;SDS011;17927;52.350;13.402;2023-06-10T03:06:33;12.93;;;6.60;;
31298;SDS011;17927;52.350;13.402;2023-06-10T03:09:00;8.45;;;6.70;;
31298;SDS011;17927;52.350;13.402;2023-06-10T03:11:25;9.90;;;6.25;;
31298;SDS011;17927;52.350;13.402;2023-06-10T03:13:51;11.40;;;7.70;;
31298;SDS011;17927;52.350;13.402;2023-06-10T03:16:17;12.13;;;6.13;;
31298;SDS011;17927;52.350;13.402;2023-06-10T03:18:43;8.38;;;5.25;;
31298;SDS011;17927;52.350;13.402;2023-06-10T03:21:08;8.50;;;6.13;;
31298;SDS011;17927;52.350;13.402;2023-06-10T03:23:34;9.45;;;6.25;;
31298;SDS011;17927;52.350;13.402;2023-06-10T03:25:59;10.98;;;6.18;;
31298;SDS011;17927;52.350;13.402;2023-06-10T03:28:25;6.78;;;5.90;;
31298;SDS011;17927;52.350;13.402;2023-06-10T03:30:50;9.95;;;5.85;;
31298;SDS011;17927;52.350;13.402;2023-06-10T03:33:16;9.45;;;4.82;;
31298;SDS011;17927;52.350;13.402;2023-06-10T03:35:41;9.45;;;5.40;;
31298;SDS011;17927;52.350;13.402;2023-06-10T03:38:07;10.27;;;5.28;;
31298;SDS011;17927;52.350;13.402;2023-06-10T03:40:32;11.63;;;6.00;;
31298;SDS011;17927;52.350;13.402;2023-06-10T03:42:57;9.07;;;5.65;;
31298;SDS011;17927;52.350;13.402;2023-06-10T03:45:23;8.18;;;5.40;;
31298;SDS011;17927;52.350;13.402;2023-06-10T03:47:49;9.07;;;5.25;;
31298;SDS011;17927;52.350;13.402;2023-06-10T03:50:14;9.05;;;5.05;;
31298;SDS011;17927;52.350;13.402;2023-06-10T03:52:39;11.10;;;6.80;;
31298;SDS011;17927;52.350;13.402;2023-06-10T03:55:06;8.88;;;5.53;;
31298;SDS011;17927;52.350;13.402;2023-06-10T03:57:31;8.77;;;5.95;;
31298;SDS011;17927;52.350;13.402;2023-06-10T03:59:57;15.80;;;6.35;;
31298;SDS011;17927;52.350;13.402;2023-06-10T04:02:23;12.68;;;5.75;;
31298;SDS011;17927;52.350;13.402;2023-06-10T04:04:48;9.82;;;5.63;;
31298;SDS011;17927;52.350;13.402;2023-06-10T04:07:13;12.48;;;5.70;;
31298;SDS011;17927;52.350;13.402;2023-06-10T04:09:39;11.70;;;5.40;;
31298;SDS011;17927;52.350;13.402;2023-06-10T04:12:04;10.40;;;5.35;;
31298;SDS011;17927;52.350;13.402;2023-06-10T04:14:31;9.73;;;5.75;;
31298;SDS011;17927;52.350;13.402;2023-06-10T04:16:56;9.25;;;5.05;;
31298;SDS011;17927;52.350;13.402;2023-06-10T04:19:21;7.90;;;5.05;;
31298;SDS011;17927;52.350;13.402;2023-06-10T04:21:47;6.75;;;4.65;;
31298;SDS011;17927;52.350;13.402;2023-06-10T04:24:12;7.70;;;5.72;;
31298;SDS011;17927;52.350;13.402;2023-06-10T04:26:37;8.07;;;5.32;;
31298;SDS011;17927;52.350;13.402;2023-06-10T04:29:03;8.68;;;5.03;;
31298;SDS011;17927;52.350;13.402;2023-06-10T04:31:28;10.98;;;5.35;;
31298;SDS011;17927;52.350;13.402;2023-06-10T04:33:53;7.47;;;4.65;;
31298;SDS011;17927;52.350;13.402;2023-06-10T04:36:19;9.70;;;5.13;;
31298;SDS011;17927;52.350;13.402;2023-06-10T04:38:44;7.20;;;5.00;;
31298;SDS011;17927;52.350;13.402;2023-06-10T04:41:10;8.73;;;4.70;;
31298;SDS011;17927;52.350;13.402;2023-06-10T04:43:36;7.82;;;4.47;;
31298;SDS011;17927;52.350;13.402;2023-06-10T04:46:01;8.25;;;5.07;;
31298;SDS011;17927;52.350;13.402;2023-06-10T04:48:26;6.55;;;3.95;;
31298;SDS011;17927;52.350;13.402;2023-06-10T04:50:52;12.32;;;4.63;;
31298;SDS011;17927;52.350;13.402;2023-06-10T04:53:17;10.73;;;5.20;;
31298;SDS011;17927;52.350;13.402;2023-06-10T04:55:43;7.03;;;4.97;;
31298;SDS011;17927;52.350;13.402;2023-06-10T04:58:08;8.68;;;5.35;;
31298;SDS011;17927;52.350;13.402;2023-06-10T05:00:34;9.25;;;6.07;;
31298;SDS011;17927;52.350;13.402;2023-06-10T05:02:59;8.20;;;4.80;;
31298;SDS011;17927;52.350;13.402;2023-06-10T05:05:25;11.70;;;7.35;;
31298;SDS011;17927;52.350;13.402;2023-06-10T05:07:50;7.15;;;5.38;;
31298;SDS011;17927;52.350;13.402;2023-06-10T05:10:15;6.95;;;4.90;;
31298;SDS011;17927;52.350;13.402;2023-06-10T05:12:41;6.82;;;4.82;;
31298;SDS011;17927;52.350;13.402;2023-06-10T05:15:07;10.10;;;5.22;;
31298;SDS011;17927;52.350;13.402;2023-06-10T05:17:32;9.75;;;6.30;;
31298;SDS011;17927;52.350;13.402;2023-06-10T05:19:58;7.03;;;5.82;;
31298;SDS011;17927;52.350;13.402;2023-06-10T05:22:23;19.77;;;5.93;;
31298;SDS011;17927;52.350;13.402;2023-06-10T05:24:49;10.23;;;5.20;;
31298;SDS011;17927;52.350;13.402;2023-06-10T05:27:15;8.10;;;6.07;;
31298;SDS011;17927;52.350;13.402;2023-06-10T05:29:41;12.15;;;8.00;;
31298;SDS011;17927;52.350;13.402;2023-06-10T05:32:07;6.82;;;5.53;;
31298;SDS011;17927;52.350;13.402;2023-06-10T05:34:33;12.60;;;5.82;;
31298;SDS011;17927;52.350;13.402;2023-06-10T05:36:58;7.90;;;5.28;;
31298;SDS011;17927;52.350;13.402;2023-06-10T05:39:23;10.50;;;5.78;;
31298;SDS011;17927;52.350;13.402;2023-06-10T05:41:48;6.28;;;5.05;;
31298;SDS011;17927;52.350;13.402;2023-06-10T05:44:14;11.23;;;5.20;;
31298;SDS011;17927;52.350;13.402;2023-06-10T05:46:39;8.48;;;5.13;;
31298;SDS011;17927;52.350;13.402;2023-06-10T05:49:05;8.43;;;5.10;;
31298;SDS011;17927;52.350;13.402;2023-06-10T05:51:30;7.13;;;5.53;;
31298;SDS011;17927;52.350;13.402;2023-06-10T05:53:55;8.13;;;5.32;;
31298;SDS011;17927;52.350;13.402;2023-06-10T05:56:20;8.48;;;5.18;;
31298;SDS011;17927;52.350;13.402;2023-06-10T05:58:48;9.98;;;5.45;;
31298;SDS011;17927;52.350;13.402;2023-06-10T06:01:14;15.02;;;7.90;;
31298;SDS011;17927;52.350;13.402;2023-06-10T06:03:40;10.75;;;7.85;;
31298;SDS011;17927;52.350;13.402;2023-06-10T06:06:05;14.27;;;7.72;;
31298;SDS011;17927;52.350;13.402;2023-06-10T06:08:30;8.50;;;5.75;;
31298;SDS011;17927;52.350;13.402;2023-06-10T06:10:56;8.38;;;6.03;;
31298;SDS011;17927;52.350;13.402;2023-06-10T06:13:24;10.43;;;6.30;;
31298;SDS011;17927;52.350;13.402;2023-06-10T06:15:49;8.45;;;5.88;;
31298;SDS011;17927;52.350;13.402;2023-06-10T06:18:15;8.02;;;5.38;;
31298;SDS011;17927;52.350;13.402;2023-06-10T06:20:41;6.38;;;5.45;;
31298;SDS011;17927;52.350;13.402;2023-06-10T06:23:06;9.45;;;6.30;;
31298;SDS011;17927;52.350;13.402;2023-06-10T06:25:33;9.88;;;5.35;;
31298;SDS011;17927;52.350;13.402;2023-06-10T06:28:00;6.72;;;5.18;;
31298;SDS011;17927;52.350;13.402;2023-06-10T06:30:25;9.68;;;5.60;;
31298;SDS011;17927;52.350;13.402;2023-06-10T06:32:51;6.05;;;5.50;;
31298;SDS011;17927;52.350;13.402;2023-06-10T06:35:16;8.65;;;5.95;;
31298;SDS011;17927;52.350;13.402;2023-06-10T06:37:41;10.60;;;5.75;;
31298;SDS011;17927;52.350;13.402;2023-06-10T06:40:07;11.00;;;6.13;;
31298;SDS011;17927;52.350;13.402;2023-06-10T06:42:32;5.72;;;5.22;;
31298;SDS011;17927;52.350;13.402;2023-06-10T06:44:58;9.27;;;6.13;;
31298;SDS011;17927;52.350;13.402;2023-06-10T06:47:23;10.40;;;6.07;;
31298;SDS011;17927;52.350;13.402;2023-06-10T06:49:48;6.15;;;5.53;;
31298;SDS011;17927;52.350;13.402;2023-06-10T06:52:16;9.57;;;5.43;;
31298;SDS011;17927;52.350;13.402;2023-06-10T06:54:42;6.75;;;5.60;;
31298;SDS011;17927;52.350;13.402;2023-06-10T06:57:07;9.25;;;6.15;;
31298;SDS011;17927;52.350;13.402;2023-06-10T06:59:33;11.32;;;6.38;;
31298;SDS011;17927;52.350;13.402;2023-06-10T07:01:58;8.60;;;6.20;;
31298;SDS011;17927;52.350;13.402;2023-06-10T07:04:23;6.35;;;5.75;;
31298;SDS011;17927;52.350;13.402;2023-06-10T07:06:49;12.18;;;7.82;;
31298;SDS011;17927;52.350;13.402;2023-06-10T07:09:14;6.93;;;6.25;;
31298;SDS011;17927;52.350;13.402;2023-06-10T07:11:40;10.82;;;6.50;;
31298;SDS011;17927;52.350;13.402;2023-06-10T07:14:06;9.80;;;5.82;;
31298;SDS011;17927;52.350;13.402;2023-06-10T07:16:32;10.75;;;5.57;;
31298;SDS011;17927;52.350;13.402;2023-06-10T07:18:57;7.80;;;6.55;;
31298;SDS011;17927;52.350;13.402;2023-06-10T07:21:22;6.97;;;6.28;;
31298;SDS011;17927;52.350;13.402;2023-06-10T07:23:48;6.85;;;6.18;;
31298;SDS011;17927;52.350;13.402;2023-06-10T07:26:13;6.38;;;5.78;;
31298;SDS011;17927;52.350;13.402;2023-06-10T07:28:39;10.43;;;6.85;;
31298;SDS011;17927;52.350;13.402;2023-06-10T07:31:05;7.32;;;6.30;;
31298;SDS011;17927;52.350;13.402;2023-06-10T07:33:30;7.50;;;5.97;;
31298;SDS011;17927;52.350;13.402;2023-06-10T07:35:55;9.07;;;6.20;;
31298;SDS011;17927;52.350;13.402;2023-06-10T07:38:20;7.60;;;5.50;;
31298;SDS011;17927;52.350;13.402;2023-06-10T07:40:46;14.55;;;6.72;;
31298;SDS011;17927;52.350;13.402;2023-06-10T07:43:11;7.40;;;6.07;;
31298;SDS011;17927;52.350;13.402;2023-06-10T07:45:36;8.18;;;6.97;;
31298;SDS011;17927;52.350;13.402;2023-06-10T07:48:02;7.45;;;5.57;;
31298;SDS011;17927;52.350;13.402;2023-06-10T07:50:27;8.73;;;6.65;;
31298;SDS011;17927;52.350;13.402;2023-06-10T07:52:52;9.32;;;6.15;;
31298;SDS011;17927;52.350;13.402;2023-06-10T07:55:17;7.50;;;5.75;;
31298;SDS011;17927;52.350;13.402;2023-06-10T07:57:43;7.63;;;6.28;;
31298;SDS011;17927;52.350;13.402;2023-06-10T08:00:08;8.35;;;6.38;;
31298;SDS011;17927;52.350;13.402;2023-06-10T08:02:34;10.07;;;5.88;;
31298;SDS011;17927;52.350;13.402;2023-06-10T08:04:59;11.30;;;5.72;;
31298;SDS011;17927;52.350;13.402;2023-06-10T08:07:24;9.18;;;5.63;;
31298;SDS011;17927;52.350;13.402;2023-06-10T08:09:50;13.45;;;10.77;;
31298;SDS011;17927;52.350;13.402;2023-06-10T08:12:15;13.88;;;9.55;;
31298;SDS011;17927;52.350;13.402;2023-06-10T08:14:40;11.75;;;8.63;;
31298;SDS011;17927;52.350;13.402;2023-06-10T08:17:06;14.73;;;7.05;;
31298;SDS011;17927;52.350;13.402;2023-06-10T08:19:31;9.77;;;6.68;;
31298;SDS011;17927;52.350;13.402;2023-06-10T08:21:56;7.43;;;6.35;;
31298;SDS011;17927;52.350;13.402;2023-06-10T08:24:22;8.45;;;5.38;;
31298;SDS011;17927;52.350;13.402;2023-06-10T08:26:47;11.75;;;9.40;;
31298;SDS011;17927;52.350;13.402;2023-06-10T08:29:12;8.60;;;7.70;;
31298;SDS011;17927;52.350;13.402;2023-06-10T08:31:40;9.73;;;8.77;;
31298;SDS011;17927;52.350;13.402;2023-06-10T08:34:06;9.60;;;6.50;;
31298;SDS011;17927;52.350;13.402;2023-06-10T08:36:32;7.47;;;6.50;;
31298;SDS011;17927;52.350;13.402;2023-06-10T08:38:57;7.95;;;5.78;;
31298;SDS011;17927;52.350;13.402;2023-06-10T08:41:22;7.45;;;6.18;;
31298;SDS011;17927;52.350;13.402;2023-06-10T08:46:29;25.45;;;8.43;;
31298;SDS011;17927;52.350;13.402;2023-06-10T08:48:56;13.90;;;12.43;;
31298;SDS011;17927;52.350;13.402;2023-06-10T08:51:27;8.52;;;6.00;;
31298;SDS011;17927;52.350;13.402;2023-06-10T08:53:57;9.77;;;6.15;;
31298;SDS011;17927;52.350;13.402;2023-06-10T08:56:26;9.45;;;5.75;;
31298;SDS011;17927;52.350;13.402;2023-06-10T08:58:54;8.27;;;5.88;;
31298;SDS011;17927;52.350;13.402;2023-06-10T09:01:21;30.75;;;6.65;;
31298;SDS011;17927;52.350;13.402;2023-06-10T09:03:47;7.80;;;6.15;;
31298;SDS011;17927;52.350;13.402;2023-06-10T09:06:13;7.63;;;6.15;;
31298;SDS011;17927;52.350;13.402;2023-06-10T09:08:38;8.07;;;6.05;;
31298;SDS011;17927;52.350;13.402;2023-06-10T09:11:04;7.78;;;5.82;;
31298;SDS011;17927;52.350;13.402;2023-06-10T09:13:29;7.28;;;6.15;;
31298;SDS011;17927;52.350;13.402;2023-06-10T09:15:55;10.15;;;6.30;;
31298;SDS011;17927;52.350;13.402;2023-06-10T09:18:21;8.07;;;6.35;;
31298;SDS011;17927;52.350;13.402;2023-06-10T09:20:47;6.60;;;5.82;;
31298;SDS011;17927;52.350;13.402;2023-06-10T09:23:12;6.38;;;5.78;;
31298;SDS011;17927;52.350;13.402;2023-06-10T09:25:38;6.97;;;5.65;;
31298;SDS011;17927;52.350;13.402;2023-06-10T09:28:04;13.45;;;6.03;;
31298;SDS011;17927;52.350;13.402;2023-06-10T09:30:30;5.90;;;5.30;;
31298;SDS011;17927;52.350;13.402;2023-06-10T09:33:02;32.67;;;20.80;;
31298;SDS011;17927;52.350;13.402;2023-06-10T09:35:35;12.98;;;9.38;;
31298;SDS011;17927;52.350;13.402;2023-06-10T09:38:00;10.88;;;7.57;;
31298;SDS011;17927;52.350;13.402;2023-06-10T09:40:27;6.55;;;6.05;;
31298;SDS011;17927;52.350;13.402;2023-06-10T09:42:57;6.40;;;5.80;;
31298;SDS011;17927;52.350;13.402;2023-06-10T09:47:54;10.38;;;5.53;;
31298;SDS011;17927;52.350;13.402;2023-06-10T09:50:19;11.45;;;5.85;;
31298;SDS011;17927;52.350;13.402;2023-06-10T09:52:45;13.13;;;5.90;;
31298;SDS011;17927;52.350;13.402;2023-06-10T09:55:12;6.70;;;6.03;;
31298;SDS011;17927;52.350;13.402;2023-06-10T09:57:38;7.18;;;5.60;;
31298;SDS011;17927;52.350;13.402;2023-06-10T10:00:07;6.45;;;5.45;;
31298;SDS011;17927;52.350;13.402;2023-06-10T10:02:48;9.65;;;7.38;;
31298;SDS011;17927;52.350;13.402;2023-06-10T10:05:18;8.52;;;6.18;;
31298;SDS011;17927;52.350;13.402;2023-06-10T10:07:46;6.85;;;6.25;;
31298;SDS011;17927;52.350;13.402;2023-06-10T10:10:12;13.95;;;6.25;;
31298;SDS011;17927;52.350;13.402;2023-06-10T10:12:40;7.97;;;5.43;;
31298;SDS011;17927;52.350;13.402;2023-06-10T10:15:06;8.40;;;5.30;;
31298;SDS011;17927;52.350;13.402;2023-06-10T10:17:34;5.80;;;5.35;;
31298;SDS011;17927;52.350;13.402;2023-06-10T10:20:03;5.22;;;4.78;;
31298;SDS011;17927;52.350;13.402;2023-06-10T10:22:33;4.75;;;4.45;;
31298;SDS011;17927;52.350;13.402;2023-06-10T10:25:06;5.40;;;5.00;;
31298;SDS011;17927;52.350;13.402;2023-06-10T10:27:36;5.38;;;4.85;;
31298;SDS011;17927;52.350;13.402;2023-06-10T10:30:05;5.45;;;4.63;;
31298;SDS011;17927;52.350;13.402;2023-06-10T10:32:35;5.38;;;4.97;;
31298;SDS011;17927;52.350;13.402;2023-06-10T10:35:08;5.85;;;5.32;;
31298;SDS011;17927;52.350;13.402;2023-06-10T10:37:37;6.10;;;5.22;;
31298;SDS011;17927;52.350;13.402;2023-06-10T10:40:02;5.93;;;5.32;;
31298;SDS011;17927;52.350;13.402;2023-06-10T10:42:29;7.38;;;5.10;;
31298;SDS011;17927;52.350;13.402;2023-06-10T10:44:55;6.53;;;5.07;;
31298;SDS011;17927;52.350;13.402;2023-06-10T10:47:21;10.02;;;5.07;;
31298;SDS011;17927;52.350;13.402;2023-06-10T10:49:47;12.65;;;5.50;;
31298;SDS011;17927;52.350;13.402;2023-06-10T10:52:16;6.45;;;4.60;;
31298;SDS011;17927;52.350;13.402;2023-06-10T10:54:45;4.88;;;4.47;;
31298;SDS011;17927;52.350;13.402;2023-06-10T10:59:56;6.32;;;4.82;;
31298;SDS011;17927;52.350;13.402;2023-06-10T11:02:33;5.93;;;5.10;;
31298;SDS011;17927;52.350;13.402;2023-06-10T11:05:01;13.10;;;4.53;;
31298;SDS011;17927;52.350;13.402;2023-06-10T11:07:30;11.75;;;5.10;;
31298;SDS011;17927;52.350;13.402;2023-06-10T11:10:05;9.32;;;5.15;;
31298;SDS011;17927;52.350;13.402;2023-06-10T11:12:41;7.80;;;4.70;;
31298;SDS011;17927;52.350;13.402;2023-06-10T11:15:13;5.10;;;4.60;;
31298;SDS011;17927;52.350;13.402;2023-06-10T11:26:08;5.35;;;4.95;;
31298;SDS011;17927;52.350;13.402;2023-06-10T11:28:35;6.55;;;5.07;;
31298;SDS011;17927;52.350;13.402;2023-06-10T11:31:01;5.78;;;4.40;;
31298;SDS011;17927;52.350;13.402;2023-06-10T11:33:26;5.10;;;4.70;;
31298;SDS011;17927;52.350;13.402;2023-06-10T11:35:52;5.97;;;5.25;;
31298;SDS011;17927;52.350;13.402;2023-06-10T11:38:18;14.18;;;6.03;;
31298;SDS011;17927;52.350;13.402;2023-06-10T11:40:50;5.78;;;5.18;;
31298;SDS011;17927;52.350;13.402;2023-06-10T11:43:18;6.15;;;4.72;;
31298;SDS011;17927;52.350;13.402;2023-06-10T11:45:44;4.53;;;4.22;;
31298;SDS011;17927;52.350;13.402;2023-06-10T11:48:09;5.25;;;4.70;;
31298;SDS011;17927;52.350;13.402;2023-06-10T11:50:35;5.38;;;4.88;;
31298;SDS011;17927;52.350;13.402;2023-06-10T11:53:01;4.80;;;4.38;;
31298;SDS011;17927;52.350;13.402;2023-06-10T11:55:42;4.35;;;3.90;;
31298;SDS011;17927;52.350;13.402;2023-06-10T11:58:18;4.82;;;4.43;;
31298;SDS011;17927;52.350;13.402;2023-06-10T12:00:46;4.63;;;4.22;;
31298;SDS011;17927;52.350;13.402;2023-06-10T12:03:11;4.93;;;4.57;;
31298;SDS011;17927;52.350;13.402;2023-06-10T12:05:36;4.70;;;4.30;;
31298;SDS011;17927;52.350;13.402;2023-06-10T12:08:07;4.40;;;4.10;;
31298;SDS011;17927;52.350;13.402;2023-06-10T12:10:40;5.18;;;4.68;;
31298;SDS011;17927;52.350;13.402;2023-06-10T12:13:06;10.82;;;3.97;;
31298;SDS011;17927;52.350;13.402;2023-06-10T12:15:33;4.75;;;4.35;;
31298;SDS011;17927;52.350;13.402;2023-06-10T12:17:59;6.20;;;4.13;;
31298;SDS011;17927;52.350;13.402;2023-06-10T12:20:25;4.68;;;3.25;;
31298;SDS011;17927;52.350;13.402;2023-06-10T12:23:08;4.30;;;3.90;;
31298;SDS011;17927;52.350;13.402;2023-06-10T12:25:34;6.63;;;3.45;;
31298;SDS011;17927;52.350;13.402;2023-06-10T12:28:01;3.83;;;3.42;;
31298;SDS011;17927;52.350;13.402;2023-06-10T12:30:27;9.65;;;4.40;;
31298;SDS011;17927;52.350;13.402;2023-06-10T12:32:53;8.18;;;4.25;;
31298;SDS011;17927;52.350;13.402;2023-06-10T12:35:22;3.90;;;3.70;;
31298;SDS011;17927;52.350;13.402;2023-06-10T12:40:36;4.03;;;3.72;;
31298;SDS011;17927;52.350;13.402;2023-06-10T12:43:05;4.13;;;3.75;;
31298;SDS011;17927;52.350;13.402;2023-06-10T12:45:31;9.88;;;3.80;;
31298;SDS011;17927;52.350;13.402;2023-06-10T12:48:20;4.78;;;3.75;;
31298;SDS011;17927;52.350;13.402;2023-06-10T12:50:55;3.88;;;3.47;;
31298;SDS011;17927;52.350;13.402;2023-06-10T12:53:22;4.45;;;3.67;;
31298;SDS011;17927;52.350;13.402;2023-06-10T12:55:48;7.10;;;4.20;;
31298;SDS011;17927;52.350;13.402;2023-06-10T12:58:13;4.03;;;3.42;;
31298;SDS011;17927;52.350;13.402;2023-06-10T13:00:39;6.63;;;3.65;;
31298;SDS011;17927;52.350;13.402;2023-06-10T13:03:05;5.03;;;4.03;;
31298;SDS011;17927;52.350;13.402;2023-06-10T13:05:31;4.82;;;4.43;;
31298;SDS011;17927;52.350;13.402;2023-06-10T13:07:57;5.10;;;4.10;;
31298;SDS011;17927;52.350;13.402;2023-06-10T13:10:23;4.55;;;3.72;;
31298;SDS011;17927;52.350;13.402;2023-06-10T13:12:49;3.85;;;3.65;;
31298;SDS011;17927;52.350;13.402;2023-06-10T13:15:15;3.72;;;3.38;;
31298;SDS011;17927;52.350;13.402;2023-06-10T13:17:41;3.92;;;3.63;;
31298;SDS011;17927;52.350;13.402;2023-06-10T13:20:08;5.07;;;3.83;;
31298;SDS011;17927;52.350;13.402;2023-06-10T13:22:34;4.00;;;3.45;;
31298;SDS011;17927;52.350;13.402;2023-06-10T13:25:02;4.72;;;3.58;;
31298;SDS011;17927;52.350;13.402;2023-06-10T13:27:28;5.15;;;3.47;;
31298;SDS011;17927;52.350;13.402;2023-06-10T13:29:53;3.43;;;3.17;;
31298;SDS011;17927;52.350;13.402;2023-06-10T13:32:19;3.27;;;3.07;;
31298;SDS011;17927;52.350;13.402;2023-06-10T13:34:44;3.05;;;2.85;;
31298;SDS011;17927;52.350;13.402;2023-06-10T13:37:10;3.35;;;3.15;;
31298;SDS011;17927;52.350;13.402;2023-06-10T13:39:37;3.38;;;2.60;;
31298;SDS011;17927;52.350;13.402;2023-06-10T13:42:02;2.90;;;2.60;;
31298;SDS011;17927;52.350;13.402;2023-06-10T13:44:28;3.53;;;3.30;;
31298;SDS011;17927;52.350;13.402;2023-06-10T13:46:55;2.78;;;2.65;;
31298;SDS011;17927;52.350;13.402;2023-06-10T13:49:21;2.80;;;2.70;;
31298;SDS011;17927;52.350;13.402;2023-06-10T13:51:46;4.57;;;3.00;;
31298;SDS011;17927;52.350;13.402;2023-06-10T13:54:11;2.73;;;2.53;;
31298;SDS011;17927;52.350;13.402;2023-06-10T13:56:39;5.50;;;2.72;;
31298;SDS011;17927;52.350;13.402;2023-06-10T13:59:04;4.88;;;3.13;;
31298;SDS011;17927;52.350;13.402;2023-06-10T14:01:30;3.17;;;2.63;;
31298;SDS011;17927;52.350;13.402;2023-06-10T14:03:55;2.80;;;2.70;;
31298;SDS011;17927;52.350;13.402;2023-06-10T14:06:21;6.10;;;3.40;;
31298;SDS011;17927;52.350;13.402;2023-06-10T14:08:47;10.32;;;3.20;;
31298;SDS011;17927;52.350;13.402;2023-06-10T14:11:12;7.45;;;3.20;;
31298;SDS011;17927;52.350;13.402;2023-06-10T14:13:38;3.22;;;3.00;;
31298;SDS011;17927;52.350;13.402;2023-06-10T14:16:04;3.15;;;2.70;;
31298;SDS011;17927;52.350;13.402;2023-06-10T14:18:29;4.93;;;4.63;;
31298;SDS011;17927;52.350;13.402;2023-06-10T14:20:54;7.55;;;3.63;;
31298;SDS011;17927;52.350;13.402;2023-06-10T14:23:20;3.90;;;3.60;;
31298;SDS011;17927;52.350;13.402;2023-06-10T14:25:45;8.27;;;3.27;;
31298;SDS011;17927;52.350;13.402;2023-06-10T14:28:10;5.10;;;3.37;;
31298;SDS011;17927;52.350;13.402;2023-06-10T14:30:35;3.07;;;2.60;;
31298;SDS011;17927;52.350;13.402;2023-06-10T14:33:01;3.00;;;2.80;;
31298;SDS011;17927;52.350;13.402;2023-06-10T14:35:26;7.90;;;2.80;;
31298;SDS011;17927;52.350;13.402;2023-06-10T14:37:51;5.47;;;3.30;;
31298;SDS011;17927;52.350;13.402;2023-06-10T14:40:16;4.40;;;3.00;;
31298;SDS011;17927;52.350;13.402;2023-06-10T14:42:42;3.23;;;3.03;;
31298;SDS011;17927;52.350;13.402;2023-06-10T14:45:07;4.80;;;2.80;;